createdAt,value
2018-12-08T00:01:40.350Z,98.03
2018-12-08T00:04:09.233Z,98.20
2018-12-08T00:06:38.191Z,97.73
2018-12-08T00:09:07.275Z,97.90
2018-12-08T00:11:37.564Z,92.67
2018-12-08T00:14:06.433Z,91.10
2018-12-08T00:16:35.371Z,90.90
2018-12-08T00:19:04.353Z,89.13
2018-12-08T00:21:33.214Z,91.43
2018-12-08T00:24:02.122Z,93.87
2018-12-08T00:26:31.051Z,91.57
2018-12-08T00:29:00.021Z,94.17
2018-12-08T00:31:43.796Z,89.10
2018-12-08T00:34:12.736Z,87.90
2018-12-08T00:36:41.848Z,87.97
2018-12-08T00:39:10.824Z,83.60
2018-12-08T00:41:39.805Z,84.23
2018-12-08T00:44:08.744Z,82.17
2018-12-08T00:46:37.650Z,81.03
2018-12-08T00:49:06.581Z,83.33
2018-12-08T00:51:35.451Z,79.67
2018-12-08T00:54:07.878Z,77.40
2018-12-08T00:56:37.483Z,77.60
2018-12-08T00:59:06.512Z,75.77
2018-12-08T01:01:35.564Z,76.63
2018-12-08T01:04:04.432Z,73.63
2018-12-08T01:06:33.391Z,73.43
2018-12-08T01:09:02.403Z,75.40
2018-12-08T01:11:32.133Z,72.37
2018-12-08T01:14:01.099Z,73.83
2018-12-08T01:16:30.018Z,74.87
2018-12-08T01:18:58.904Z,70.57
2018-12-08T01:21:27.485Z,75.20
2018-12-08T01:23:56.378Z,84.10
2018-12-08T01:26:25.390Z,79.63
2018-12-08T01:28:54.297Z,73.30
2018-12-08T01:31:23.176Z,65.70
2018-12-08T01:33:52.109Z,70.23
2018-12-08T01:36:21.057Z,67.73
2018-12-08T01:38:50.005Z,66.23
2018-12-08T01:41:18.935Z,67.37
2018-12-08T01:43:47.857Z,65.37
2018-12-08T01:46:16.852Z,64.37
2018-12-08T01:48:45.844Z,63.83
2018-12-08T01:51:14.446Z,64.03
2018-12-08T01:53:43.440Z,65.53
2018-12-08T01:56:12.362Z,49.83
2018-12-08T01:58:41.247Z,67.20
2018-12-08T02:01:10.169Z,65.80
2018-12-08T02:03:39.099Z,63.33
2018-12-08T02:06:08.076Z,63.87
2018-12-08T02:08:37.065Z,61.20
2018-12-08T02:11:07.642Z,65.60
2018-12-08T02:13:36.536Z,64.73
2018-12-08T02:16:05.143Z,66.87
2018-12-08T02:18:34.110Z,65.83
2018-12-08T02:21:03.046Z,68.77
2018-12-08T02:23:31.931Z,68.03
2018-12-08T02:26:00.928Z,68.90
2018-12-08T02:28:32.313Z,69.17
2018-12-08T02:31:01.218Z,69.10
2018-12-08T02:33:30.160Z,70.73
2018-12-08T02:35:59.114Z,76.70
2018-12-08T02:38:28.066Z,76.23
2018-12-08T02:40:57.054Z,71.60
2018-12-08T02:43:25.958Z,68.50
2018-12-08T02:45:54.834Z,68.13
2018-12-08T02:48:23.725Z,69.97
2018-12-08T02:50:52.599Z,69.03
2018-12-08T02:53:21.551Z,67.67
2018-12-08T02:55:50.564Z,69.07
2018-12-08T02:58:19.547Z,66.37
2018-12-08T03:00:48.439Z,65.60
2018-12-08T03:03:16.994Z,71.73
2018-12-08T03:05:45.844Z,75.70
2018-12-08T03:08:14.729Z,75.10
2018-12-08T03:10:43.469Z,71.97
2018-12-08T03:13:12.365Z,76.53
2018-12-08T03:15:41.265Z,69.27
2018-12-08T03:18:10.224Z,68.40
2018-12-08T03:20:39.194Z,68.70
2018-12-08T03:23:08.161Z,62.33
2018-12-08T03:25:36.695Z,69.83
2018-12-08T03:28:05.686Z,55.63
2018-12-08T03:30:34.637Z,68.77
2018-12-08T03:33:03.546Z,65.50
2018-12-08T03:35:32.468Z,52.83
2018-12-08T03:38:01.525Z,45.87
2018-12-08T03:40:30.433Z,58.40
2018-12-08T03:42:59.348Z,57.17
2018-12-08T03:45:28.218Z,55.73
2018-12-08T03:47:57.152Z,51.73
2018-12-08T03:50:26.154Z,50.93
2018-12-08T03:52:55.102Z,49.90
2018-12-08T03:55:24.022Z,52.83
2018-12-08T03:57:52.570Z,51.93
2018-12-08T04:00:21.490Z,51.57
2018-12-08T04:02:50.084Z,48.70
2018-12-08T04:05:19.007Z,52.63
2018-12-08T04:07:47.940Z,49.77
2018-12-08T04:10:16.861Z,52.50
2018-12-08T04:12:45.893Z,53.03
2018-12-08T04:15:14.951Z,41.87
2018-12-08T04:17:43.858Z,49.90
2018-12-08T04:20:12.758Z,46.97
2018-12-08T04:22:41.736Z,44.37
2018-12-08T04:25:12.759Z,43.80
2018-12-08T04:27:41.282Z,42.77
2018-12-08T04:30:10.222Z,42.87
2018-12-08T04:32:39.153Z,40.50
2018-12-08T04:35:08.221Z,40.63
2018-12-08T04:37:36.848Z,41.87
2018-12-08T04:40:05.870Z,41.53
2018-12-08T04:42:35.271Z,40.23
2018-12-08T04:45:04.461Z,41.97
2018-12-08T04:47:35.323Z,39.63
2018-12-08T04:50:04.758Z,38.60
2018-12-08T04:52:33.660Z,38.60
2018-12-08T04:55:02.322Z,38.57
2018-12-08T04:57:31.230Z,38.30
2018-12-08T05:00:00.136Z,36.00
2018-12-08T05:02:29.115Z,38.40
2018-12-08T05:04:57.737Z,36.57
2018-12-08T05:07:26.695Z,35.73
2018-12-08T05:09:55.245Z,35.20
2018-12-08T05:12:24.146Z,34.83
2018-12-08T05:14:53.063Z,36.87
2018-12-08T05:17:21.948Z,36.80
2018-12-08T05:19:50.497Z,39.67
2018-12-08T05:22:19.007Z,38.17
2018-12-08T05:24:47.924Z,37.17
2018-12-08T05:27:16.877Z,38.03
2018-12-08T05:29:45.423Z,40.27
2018-12-08T05:32:14.378Z,42.37
2018-12-08T05:34:44.210Z,42.73
2018-12-08T05:37:13.060Z,43.93
2018-12-08T05:39:42.179Z,43.77
2018-12-08T05:42:10.756Z,48.67
2018-12-08T05:44:39.759Z,47.23
2018-12-08T05:47:08.743Z,47.47
2018-12-08T05:49:37.699Z,48.03
2018-12-08T05:52:06.265Z,45.87
2018-12-08T05:54:35.203Z,43.20
2018-12-08T05:57:04.142Z,43.40
2018-12-08T05:59:33.994Z,43.97
2018-12-08T06:02:03.033Z,44.03
2018-12-08T06:04:31.632Z,44.07
2018-12-08T06:07:00.570Z,47.63
2018-12-08T06:09:29.677Z,46.83
2018-12-08T06:11:58.757Z,49.13
2018-12-08T06:14:28.996Z,46.00
2018-12-08T06:16:58.138Z,48.80
2018-12-08T06:19:27.120Z,48.97
2018-12-08T06:21:56.480Z,48.67
2018-12-08T06:24:25.422Z,48.37
2018-12-08T06:26:59.805Z,46.33
2018-12-08T06:29:29.333Z,45.87
2018-12-08T06:31:57.861Z,45.53
2018-12-08T06:34:26.444Z,49.50
2018-12-08T06:36:54.983Z,51.87
2018-12-08T06:39:23.968Z,51.37
2018-12-08T06:41:52.889Z,54.37
2018-12-08T06:44:21.860Z,53.77
2018-12-08T06:46:50.461Z,52.33
2018-12-08T06:49:18.984Z,53.50
2018-12-08T06:51:47.909Z,56.17
2018-12-08T06:54:16.816Z,68.40
2018-12-08T06:56:46.026Z,74.57
2018-12-08T06:59:14.567Z,69.57
2018-12-08T07:01:43.224Z,73.90
2018-12-08T07:04:12.351Z,74.60
2018-12-08T07:06:41.255Z,74.13
2018-12-08T07:09:25.861Z,74.23
2018-12-08T07:11:54.741Z,79.07
2018-12-08T07:14:23.804Z,75.60
2018-12-08T07:16:52.902Z,72.93
2018-12-08T07:19:21.516Z,75.33
2018-12-08T07:21:50.561Z,70.47
2018-12-08T07:24:19.481Z,80.50
2018-12-08T07:26:48.461Z,72.50
2018-12-08T07:29:17.632Z,79.10
2018-12-08T07:31:46.625Z,77.20
2018-12-08T07:34:15.950Z,82.57
2018-12-08T07:36:44.941Z,88.70
2018-12-08T07:39:14.931Z,89.73
2018-12-08T07:41:43.844Z,87.87
2018-12-08T07:44:12.429Z,90.63
2018-12-08T07:46:41.591Z,85.70
2018-12-08T07:49:10.545Z,95.03
2018-12-08T07:51:39.473Z,87.20
2018-12-08T07:54:08.039Z,96.63
2018-12-08T07:56:37.008Z,107.47
2018-12-08T07:59:05.995Z,99.13
2018-12-08T08:01:34.918Z,99.80
2018-12-08T08:04:03.526Z,94.43
2018-12-08T08:06:32.055Z,93.90
2018-12-08T08:09:00.952Z,99.40
2018-12-08T08:11:29.491Z,89.37
2018-12-08T08:13:58.354Z,88.47
2018-12-08T08:16:27.282Z,83.63
2018-12-08T08:18:55.932Z,81.40
2018-12-08T08:21:25.964Z,80.80
2018-12-08T08:23:54.871Z,83.60
2018-12-08T08:26:23.448Z,84.57
2018-12-08T08:28:52.515Z,89.63
2018-12-08T08:31:21.037Z,77.77
2018-12-08T08:33:49.950Z,74.20
2018-12-08T08:36:18.855Z,75.13
2018-12-08T08:38:47.442Z,77.90
2018-12-08T08:41:17.825Z,72.97
2018-12-08T08:43:46.396Z,79.73
2018-12-08T08:46:15.351Z,73.73
2018-12-08T08:48:44.413Z,72.00
2018-12-08T08:51:13.392Z,76.13
2018-12-08T08:53:42.283Z,72.23
2018-12-08T08:56:11.281Z,75.77
2018-12-08T08:58:40.137Z,72.70
2018-12-08T09:01:09.167Z,71.80
2018-12-08T09:03:37.811Z,72.33
2018-12-08T09:06:06.716Z,69.13
2018-12-08T09:08:35.682Z,71.43
2018-12-08T09:11:04.305Z,68.27
2018-12-08T09:13:33.339Z,69.13
2018-12-08T09:16:01.989Z,66.90
2018-12-08T09:18:30.744Z,63.93
2018-12-08T09:21:00.933Z,61.00
2018-12-08T09:23:29.962Z,59.95
2018-12-08T09:25:58.982Z,53.77
2018-12-08T09:28:45.790Z,59.25
2018-12-08T09:31:15.986Z,55.27
2018-12-08T09:33:44.923Z,53.93
2018-12-08T09:36:13.919Z,52.37
2018-12-08T09:38:42.694Z,57.45
2018-12-08T09:41:11.897Z,52.15
2018-12-08T09:43:40.664Z,49.20
2018-12-08T09:46:09.727Z,49.13
2018-12-08T09:48:38.660Z,49.40
2018-12-08T09:51:07.598Z,47.20
2018-12-08T09:53:36.714Z,47.30
2018-12-08T09:56:06.712Z,48.53
2018-12-08T09:58:35.636Z,47.50
2018-12-08T10:01:21.107Z,45.33
2018-12-08T10:03:50.033Z,42.97
2018-12-08T10:06:19.103Z,44.90
2018-12-08T10:08:47.706Z,45.20
2018-12-08T10:11:16.708Z,45.47
2018-12-08T10:13:45.693Z,40.60
2018-12-08T10:16:14.652Z,44.73
2018-12-08T10:18:43.197Z,42.58
2018-12-08T10:21:11.694Z,37.47
2018-12-08T10:23:40.650Z,40.63
2018-12-08T10:26:09.636Z,38.20
2018-12-08T10:28:41.370Z,37.97
2018-12-08T10:31:10.380Z,37.67
2018-12-08T10:33:39.363Z,35.63
2018-12-08T10:36:08.254Z,36.93
2018-12-08T10:38:37.173Z,33.95
2018-12-08T10:41:06.112Z,32.93
2018-12-08T10:43:35.109Z,29.27
2018-12-08T10:46:04.006Z,29.80
2018-12-08T10:48:32.979Z,27.20
2018-12-08T10:51:01.965Z,27.23
2018-12-08T10:53:32.907Z,23.13
2018-12-08T10:56:01.922Z,24.63
2018-12-08T10:58:30.909Z,26.77
2018-12-08T11:01:09.393Z,26.35
2018-12-08T11:03:48.732Z,24.15
2018-12-08T11:06:17.733Z,20.93
2018-12-08T11:08:46.241Z,19.17
2018-12-08T11:11:15.147Z,20.00
2018-12-08T11:13:44.057Z,19.83
2018-12-08T11:16:12.978Z,19.97
2018-12-08T11:18:42.073Z,22.60
2018-12-08T11:21:10.951Z,22.15
2018-12-08T11:23:39.906Z,20.93
2018-12-08T11:26:08.962Z,21.30
2018-12-08T11:28:37.874Z,19.67
2018-12-08T11:31:06.787Z,20.73
2018-12-08T11:33:35.710Z,20.67
2018-12-08T11:36:04.638Z,24.18
2018-12-08T11:38:33.590Z,22.20
2018-12-08T11:41:02.471Z,16.65
2018-12-08T11:43:31.495Z,10.17
2018-12-08T11:46:00.488Z,14.40
2018-12-08T11:48:29.362Z,17.20
2018-12-08T11:50:58.276Z,16.82
2018-12-08T11:53:27.162Z,16.93
2018-12-08T11:55:56.098Z,9.47
2018-12-08T11:58:25.223Z,10.77
2018-12-08T12:00:54.186Z,9.40
2018-12-08T12:03:23.122Z,10.27
2018-12-08T12:05:52.047Z,9.37
2018-12-08T12:08:21.171Z,10.20
2018-12-08T12:10:50.199Z,11.35
2018-12-08T12:13:19.154Z,8.27
2018-12-08T12:15:48.075Z,8.33
2018-12-08T12:18:16.965Z,9.67
2018-12-08T12:20:45.875Z,9.63
2018-12-08T12:23:14.874Z,9.40
2018-12-08T12:25:43.961Z,10.68
2018-12-08T12:28:12.896Z,9.90
2018-12-08T12:30:41.921Z,11.80
2018-12-08T12:33:10.850Z,8.87
2018-12-08T12:35:39.739Z,8.67
2018-12-08T12:38:08.633Z,9.00
2018-12-08T12:40:37.645Z,10.07
2018-12-08T12:43:06.569Z,9.10
2018-12-08T12:45:35.443Z,9.67
2018-12-08T12:48:04.443Z,8.90
2018-12-08T12:50:33.330Z,8.80
2018-12-08T12:53:02.219Z,8.40
2018-12-08T12:55:31.118Z,8.77
2018-12-08T12:58:00.171Z,9.43
2018-12-08T13:00:29.113Z,8.73
2018-12-08T13:02:58.125Z,10.70
2018-12-08T13:05:27.040Z,10.63
2018-12-08T13:07:55.957Z,10.63
2018-12-08T13:10:24.878Z,10.93
2018-12-08T13:12:53.761Z,10.73
2018-12-08T13:15:22.796Z,13.30
2018-12-08T13:17:51.777Z,11.17
2018-12-08T13:20:20.678Z,12.67
2018-12-08T13:22:49.559Z,11.93
2018-12-08T13:25:24.549Z,10.53
2018-12-08T13:27:53.464Z,11.20
2018-12-08T13:30:22.575Z,10.50
2018-12-08T13:32:52.550Z,10.83
2018-12-08T13:35:32.441Z,10.20
2018-12-08T13:38:01.404Z,10.47
2018-12-08T13:40:30.304Z,11.97
2018-12-08T13:42:59.271Z,11.83
2018-12-08T13:45:28.200Z,10.07
2018-12-08T13:47:57.135Z,8.13
2018-12-08T13:50:26.064Z,7.83
2018-12-08T13:52:55.014Z,8.10
2018-12-08T13:55:27.017Z,7.70
2018-12-08T13:57:55.932Z,7.33
2018-12-08T14:00:24.796Z,8.20
2018-12-08T14:02:53.683Z,7.60
2018-12-08T14:05:22.738Z,8.33
2018-12-08T14:07:51.664Z,8.47
2018-12-08T14:10:20.684Z,8.27
2018-12-08T14:12:49.597Z,12.47
2018-12-08T14:15:21.559Z,9.60
2018-12-08T14:17:50.463Z,9.27
2018-12-08T14:20:27.290Z,9.97
2018-12-08T14:22:56.231Z,9.57
2018-12-08T14:25:25.170Z,8.33
2018-12-08T14:27:54.140Z,8.93
2018-12-08T14:30:23.111Z,8.50
2018-12-08T14:32:52.055Z,8.83
2018-12-08T14:35:21.017Z,7.93
2018-12-08T14:37:50.001Z,7.67
2018-12-08T14:40:19.016Z,7.80
2018-12-08T14:42:47.994Z,8.50
2018-12-08T14:45:23.076Z,10.27
2018-12-08T14:47:59.387Z,11.87
2018-12-08T14:50:29.526Z,10.00
2018-12-08T14:52:58.421Z,10.13
2018-12-08T14:55:27.329Z,9.70
2018-12-08T14:57:56.267Z,10.23
2018-12-08T15:00:25.184Z,10.30
2018-12-08T15:02:54.276Z,11.27
2018-12-08T15:05:23.214Z,16.03
2018-12-08T15:07:52.280Z,13.90
2018-12-08T15:10:21.953Z,12.90
2018-12-08T15:12:51.158Z,12.83
2018-12-08T15:15:20.115Z,11.07
2018-12-08T15:17:49.074Z,11.07
2018-12-08T15:20:18.036Z,10.63
2018-12-08T15:22:46.963Z,11.00
2018-12-08T15:25:16.031Z,11.00
2018-12-08T15:27:45.272Z,12.97
2018-12-08T15:30:14.252Z,12.33
2018-12-08T15:32:45.952Z,12.70
2018-12-08T15:35:15.871Z,12.83
2018-12-08T15:37:44.991Z,12.93
2018-12-08T15:40:14.421Z,13.50
2018-12-08T15:42:43.587Z,13.73
2018-12-08T15:45:12.644Z,13.60
2018-12-08T15:47:41.671Z,14.13
2018-12-08T15:50:11.664Z,15.30
2018-12-08T15:52:40.688Z,14.90
2018-12-08T15:55:09.711Z,15.00
2018-12-08T15:57:39.090Z,14.17
2018-12-08T16:00:10.747Z,14.63
2018-12-08T16:02:39.864Z,14.07
2018-12-08T16:05:09.362Z,14.57
2018-12-08T16:07:38.426Z,19.93
2018-12-08T16:10:08.473Z,17.60
2018-12-08T16:12:37.539Z,17.53
2018-12-08T16:15:08.101Z,18.20
2018-12-08T16:17:37.086Z,18.23
2018-12-08T16:20:09.574Z,16.77
2018-12-08T16:22:39.046Z,16.23
2018-12-08T16:25:08.182Z,16.77
2018-12-08T16:27:37.241Z,18.50
2018-12-08T16:30:08.150Z,20.83
2018-12-08T16:32:37.171Z,21.17
2018-12-08T16:35:06.139Z,22.97
2018-12-08T16:37:35.279Z,24.33
2018-12-08T16:40:04.843Z,28.77
2018-12-08T16:42:34.187Z,30.23
2018-12-08T16:45:03.440Z,31.00
2018-12-08T16:47:32.407Z,39.63
2018-12-08T16:50:01.430Z,35.77
2018-12-08T16:52:30.197Z,35.50
2018-12-08T16:54:59.269Z,33.30
2018-12-08T16:57:28.345Z,34.20
2018-12-08T16:59:57.373Z,31.70
2018-12-08T17:02:26.001Z,36.33
2018-12-08T17:04:54.681Z,34.57
2018-12-08T17:07:24.673Z,40.43
2018-12-08T17:09:53.680Z,41.47
2018-12-08T17:12:22.627Z,42.70
2018-12-08T17:14:52.221Z,44.80
2018-12-08T17:17:21.219Z,37.37
2018-12-08T17:19:50.262Z,39.17
2018-12-08T17:22:19.360Z,41.87
2018-12-08T17:24:48.326Z,52.70
2018-12-08T17:27:16.948Z,49.97
2018-12-08T17:29:45.925Z,122.87
2018-12-08T17:32:14.894Z,84.80
2018-12-08T17:34:44.180Z,47.93
2018-12-08T17:37:13.163Z,49.80
2018-12-08T17:39:42.792Z,47.20
2018-12-08T17:42:11.787Z,52.53
2018-12-08T17:44:41.007Z,48.23
2018-12-08T17:47:09.987Z,49.70
2018-12-08T17:49:39.068Z,55.73
2018-12-08T17:52:07.894Z,61.50
2018-12-08T17:54:36.891Z,52.57
2018-12-08T17:57:05.986Z,46.63
2018-12-08T17:59:34.977Z,39.60
2018-12-08T18:02:04.521Z,34.17
2018-12-08T18:04:33.439Z,34.93
2018-12-08T18:07:02.509Z,41.40
2018-12-08T18:09:31.402Z,47.97
2018-12-08T18:12:00.417Z,43.93
2018-12-08T18:14:29.556Z,54.07
2018-12-08T18:16:58.559Z,49.53
2018-12-08T18:19:27.561Z,66.93
2018-12-08T18:21:59.273Z,56.87
2018-12-08T18:35:55.093Z,38.60
2018-12-08T18:38:24.126Z,37.47
2018-12-08T18:40:53.221Z,44.53
2018-12-08T18:43:22.274Z,100.13
2018-12-08T18:45:51.240Z,161.90
2018-12-08T18:48:20.307Z,100.80
2018-12-08T18:50:49.426Z,62.43
2018-12-08T18:53:18.686Z,46.43
2018-12-08T18:55:47.711Z,50.87
2018-12-08T18:58:33.575Z,57.93
2018-12-08T19:01:02.546Z,51.60
2018-12-08T19:03:32.580Z,109.17
2018-12-08T19:06:01.609Z,66.10
2018-12-08T19:08:30.630Z,60.47
2018-12-08T19:10:59.708Z,50.83
2018-12-08T19:13:29.324Z,50.23
2018-12-08T19:15:59.538Z,50.80
2018-12-08T19:18:28.544Z,53.37
2018-12-08T19:20:57.536Z,56.83
2018-12-08T19:23:26.662Z,54.27
2018-12-08T19:25:55.653Z,51.87
2018-12-08T19:28:25.943Z,51.60
2018-12-08T19:30:55.002Z,53.80
2018-12-08T19:33:24.112Z,52.47
2018-12-08T19:35:52.708Z,51.27
2018-12-08T19:38:21.597Z,51.07
2018-12-08T19:40:50.714Z,53.23
2018-12-08T19:43:24.798Z,61.13
2018-12-08T19:45:53.454Z,71.13
2018-12-08T19:48:22.657Z,60.07
2018-12-08T19:50:51.698Z,49.40
2018-12-08T19:53:20.746Z,48.43
2018-12-08T19:55:49.719Z,58.47
2018-12-08T19:58:18.373Z,56.13
2018-12-08T20:00:47.318Z,52.47
2018-12-08T20:03:16.444Z,52.00
2018-12-08T20:05:45.423Z,51.43
2018-12-08T20:08:14.394Z,47.20
2018-12-08T20:10:43.409Z,48.00
2018-12-08T20:13:12.394Z,51.57
2018-12-08T20:15:41.330Z,55.40
2018-12-08T20:18:10.290Z,66.07
2018-12-08T20:20:39.239Z,69.90
2018-12-08T20:23:08.290Z,63.03
2018-12-08T20:25:37.234Z,57.97
2018-12-08T20:28:06.272Z,61.00
2018-12-08T20:30:35.297Z,64.07
2018-12-08T20:33:04.048Z,64.70
2018-12-08T20:35:33.009Z,66.50
2018-12-08T20:38:01.993Z,64.43
2018-12-08T20:40:31.000Z,67.00
2018-12-08T20:42:59.596Z,75.37
2018-12-08T20:45:28.643Z,71.77
2018-12-08T20:47:58.616Z,74.10
2018-12-08T20:50:27.186Z,67.67
2018-12-08T20:52:56.130Z,63.73
2018-12-08T20:55:27.564Z,59.60
2018-12-08T20:57:56.576Z,57.63
2018-12-08T21:03:09.111Z,53.57
2018-12-08T21:05:38.038Z,58.53
2018-12-08T21:08:08.154Z,60.07
2018-12-08T21:10:36.722Z,57.63
2018-12-08T21:13:06.840Z,52.77
2018-12-08T21:15:35.852Z,56.10
2018-12-08T21:18:04.459Z,72.63
2018-12-08T21:20:33.505Z,67.10
2018-12-08T21:23:02.478Z,84.50
2018-12-08T21:25:31.437Z,74.07
2018-12-08T21:28:01.632Z,59.97
2018-12-08T21:30:30.692Z,50.73
2018-12-08T21:32:59.722Z,54.67
2018-12-08T21:35:28.700Z,55.70
2018-12-08T21:37:57.690Z,60.57
2018-12-08T21:40:28.576Z,57.33
2018-12-08T21:42:57.595Z,58.03
2018-12-08T21:45:26.939Z,61.10
2018-12-08T21:47:55.869Z,59.17
2018-12-08T21:50:24.794Z,59.80
2018-12-08T21:52:53.730Z,52.80
2018-12-08T21:55:22.717Z,54.27
2018-12-08T21:57:51.719Z,59.37
2018-12-08T22:00:20.963Z,59.60
2018-12-08T22:02:49.604Z,56.17
2018-12-08T22:05:18.569Z,56.40
2018-12-08T22:07:47.499Z,56.50
2018-12-08T22:10:16.492Z,58.63
2018-12-08T22:12:45.461Z,61.20
2018-12-08T22:15:15.522Z,56.67
2018-12-08T22:17:45.240Z,54.13
2018-12-08T22:20:14.269Z,49.80
2018-12-08T22:22:43.393Z,49.50
2018-12-08T22:25:12.371Z,47.73
2018-12-08T22:27:41.372Z,45.90
2018-12-08T22:30:10.385Z,48.70
2018-12-08T22:32:39.014Z,48.47
2018-12-08T22:35:08.087Z,45.67
2018-12-08T22:37:37.089Z,48.07
2018-12-08T22:40:07.091Z,47.40
2018-12-08T22:42:35.659Z,46.73
2018-12-08T22:45:05.408Z,48.97
2018-12-08T22:47:34.387Z,47.33
2018-12-08T22:50:03.538Z,45.20
2018-12-08T22:52:32.508Z,45.77
2018-12-08T22:55:01.448Z,45.63
2018-12-08T22:57:31.186Z,46.83
2018-12-08T23:00:00.205Z,46.27
2018-12-08T23:02:29.200Z,43.57
2018-12-08T23:04:58.151Z,44.70
2018-12-08T23:07:26.804Z,46.30
2018-12-08T23:09:55.837Z,47.20
2018-12-08T23:12:24.857Z,49.90
2018-12-08T23:14:53.461Z,42.90
2018-12-08T23:17:22.414Z,43.90
2018-12-08T23:19:51.349Z,47.50
2018-12-08T23:22:20.314Z,44.10
2018-12-08T23:24:49.290Z,42.60
2018-12-08T23:27:17.870Z,43.60
2018-12-08T23:29:46.838Z,41.97
2018-12-08T23:32:15.718Z,41.67
2018-12-08T23:34:44.710Z,41.30
2018-12-08T23:37:13.651Z,39.73
2018-12-08T23:39:42.715Z,42.37
2018-12-08T23:42:11.639Z,41.83
2018-12-08T23:44:40.592Z,40.40
2018-12-08T23:47:09.173Z,40.47
2018-12-08T23:49:38.385Z,42.00
2018-12-08T23:52:07.406Z,37.87
2018-12-08T23:54:36.454Z,35.67
2018-12-08T23:57:05.541Z,35.30
2018-12-08T23:59:34.675Z,32.77
